Time;durP1;ratioP1;P1;durP2;ratioP2;P2;SDS_P1;SDS_P2;PMS_P1;PMS_P2;Temp;Humidity;BMP_temperature;BMP_pressure;BME280_temperature;BME280_humidity;BME280_pressure;Samples;Min_cycle;Max_cycle;Signal;HPM_P1;HPM_P2
2023/07/28 00:01:16;;;;;;;;;;;;;;;16.87;100.00;100562.94;5057448;28;20281;-70
2023/07/28 00:03:41;;;;;;;;;;;;;;;16.88;100.00;100553.00;5057122;28;20288;-70
2023/07/28 00:06:06;;;;;;;;;;;;;;;16.87;100.00;100568.31;5055669;28;19924;-70
2023/07/28 00:08:32;;;;;;;;;;;;;;;16.89;100.00;100560.88;5057301;28;19942;-70
2023/07/28 00:10:57;;;;;;;;;;;;;;;16.89;100.00;100560.88;5056824;28;19925;-70
2023/07/28 00:13:22;;;;;;;;;;;;;;;16.90;100.00;100549.13;5056812;28;19916;-70
2023/07/28 00:15:47;;;;;;;;;;;;;;;16.90;100.00;100556.38;5056957;28;20368;-69
2023/07/28 00:18:12;;;;;;;;;;;;;;;16.90;100.00;100557.19;5056681;28;19917;-70
2023/07/28 00:20:38;;;;;;;;;;;;;;;16.90;100.00;100556.38;5056659;28;19921;-70
2023/07/28 00:23:03;;;;;;;;;;;;;;;16.90;100.00;100554.50;5055364;28;20016;-70
2023/07/28 00:25:28;;;;;;;;;;;;;;;16.91;100.00;100558.00;5056492;28;19949;-70
2023/07/28 00:27:53;;;;;;;;;;;;;;;16.92;100.00;100560.50;5056366;28;19936;-71
2023/07/28 00:30:19;;;;;;;;;;;;;;;16.94;100.00;100563.00;5054968;28;20277;-70
2023/07/28 00:32:44;;;;;;;;;;;;;;;16.95;100.00;100564.69;5056454;28;19925;-70
2023/07/28 00:35:09;;;;;;;;;;;;;;;16.95;100.00;100563.88;5056068;28;19921;-70
2023/07/28 00:37:34;;;;;;;;;;;;;;;16.95;100.00;100563.88;5056084;28;19925;-72
2023/07/28 00:40:00;;;;;;;;;;;;;;;16.95;100.00;100555.81;5055945;28;20090;-70
2023/07/28 00:42:25;;;;;;;;;;;;;;;16.94;100.00;100562.19;5056337;28;20008;-70
2023/07/28 00:44:50;;;;;;;;;;;;;;;16.96;100.00;100565.50;5056069;28;19921;-70
2023/07/28 00:47:15;;;;;;;;;;;;;;;16.96;100.00;100571.75;5054777;28;19975;-70
2023/07/28 00:49:41;;;;;;;;;;;;;;;16.98;100.00;100564.31;5055900;28;19921;-70
2023/07/28 00:52:09;;;;;;;;;;;;;;;16.99;100.00;100565.13;5055953;28;19920;-70
2023/07/28 00:54:35;;;;;;;;;;;;;;;16.99;100.00;100560.59;5056124;28;20331;-70
2023/07/28 00:57:01;;;;;;;;;;;;;;;16.99;100.00;100555.22;5072483;28;19920;-70
2023/07/28 00:59:27;;;;;;;;;;;;;;;17.00;100.00;100556.06;5076075;28;20290;-70
2023/07/28 01:01:52;;;;;;;;;;;;;;;17.00;100.00;100559.56;5076008;28;19916;-70
2023/07/28 01:04:17;;;;;;;;;;;;;;;17.00;100.00;100558.75;5075780;28;19968;-70
2023/07/28 01:07:04;;;;;;;;;;;;;;;17.01;100.00;100561.25;5057950;28;19968;-70
2023/07/28 01:09:34;;;;;;;;;;;;;;;17.01;100.00;100560.41;5075525;28;20016;-70
2023/07/28 01:12:01;;;;;;;;;;;;;;;17.02;100.00;100557.53;5058495;28;20286;-71
2023/07/28 01:14:26;;;;;;;;;;;;;;;17.02;100.00;100562.91;5075617;28;19921;-70
2023/07/28 01:16:51;;;;;;;;;;;;;;;17.04;100.00;100557.34;5075945;28;20284;-70
2023/07/28 01:19:20;;;;;;;;;;;;;;;17.05;100.00;100561.72;5075430;28;20296;-70
2023/07/28 01:21:48;;;;;;;;;;;;;;;17.05;100.00;100562.53;5075497;28;19927;-70
2023/07/28 01:24:33;;;;;;;;;;;;;;;17.05;100.00;100556.34;5075835;28;20017;-70
2023/07/28 01:26:59;;;;;;;;;;;;;;;17.04;100.00;100563.56;5057721;28;20019;-70
2023/07/28 01:29:24;;;;;;;;;;;;;;;17.05;100.00;100559.84;5075216;28;20341;-69
2023/07/28 01:31:50;;;;;;;;;;;;;;;17.06;100.00;100563.34;5075335;28;19954;-70
2023/07/28 01:34:16;;;;;;;;;;;;;;;17.07;100.00;100562.34;5075165;28;19923;-70
2023/07/28 01:36:41;;;;;;;;;;;;;;;17.06;100.00;100566.91;5075019;28;20299;-70
2023/07/28 01:39:06;;;;;;;;;;;;;;;17.06;100.00;100563.34;5075712;28;20259;-70
2023/07/28 01:41:31;;;;;;;;;;;;;;;17.04;100.00;100568.94;5057280;28;19920;-69
2023/07/28 01:43:58;;;;;;;;;;;;;;;17.04;100.00;100560.88;5074831;28;19931;-70
2023/07/28 01:46:23;;;;;;;;;;;;;;;17.07;100.00;100562.34;5074896;28;19916;-70
2023/07/28 01:48:48;;;;;;;;;;;;;;;17.09;100.00;100560.28;5074673;28;19973;-70
2023/07/28 01:51:13;;;;;;;;;;;;;;;17.08;100.00;100564.03;5057479;28;20114;-70
2023/07/28 01:53:39;;;;;;;;;;;;;;;17.08;100.00;100564.84;5074644;28;20391;-69
2023/07/28 01:56:04;;;;;;;;;;;;;;;17.07;100.00;100573.09;5073910;28;20009;-70
2023/07/28 01:58:29;;;;;;;;;;;;;;;17.07;100.00;100567.72;5074472;28;20359;-70
2023/07/28 02:00:54;;;;;;;;;;;;;;;17.04;100.00;100557.34;5075440;28;19935;-70
2023/07/28 02:03:20;;;;;;;;;;;;;;;16.99;100.00;100557.91;5074637;28;20319;-70
2023/07/28 02:05:45;;;;;;;;;;;;;;;16.98;100.00;100568.84;5074675;28;19927;-70
2023/07/28 02:08:10;;;;;;;;;;;;;;;16.95;100.00;100564.69;5074985;28;20291;-71
2023/07/28 02:10:35;;;;;;;;;;;;;;;16.94;100.00;100563.00;5074475;28;19964;-70
2023/07/28 02:13:01;;;;;;;;;;;;;;;16.94;100.00;100567.56;5056742;28;19997;-70
2023/07/28 02:15:26;;;;;;;;;;;;;;;16.92;100.00;100565.06;5074372;28;20033;-70
2023/07/28 02:17:51;;;;;;;;;;;;;;;16.91;100.00;100566.94;5074501;28;19923;-70
2023/07/28 02:20:17;;;;;;;;;;;;;;;16.90;100.00;100564.44;5074109;28;19916;-71
2023/07/28 02:22:42;;;;;;;;;;;;;;;16.85;100.00;100564.09;5074284;28;19951;-72
2023/07/28 02:25:08;;;;;;;;;;;;;;;16.79;100.00;100563.00;5074939;28;19916;-72
2023/07/28 02:27:33;;;;;;;;;;;;;;;16.74;100.00;100557.34;5074266;28;19931;-72
2023/07/28 02:29:59;;;;;;;;;;;;;;;16.70;100.00;100564.94;5074529;28;19970;-72
2023/07/28 02:32:24;;;;;;;;;;;;;;;16.67;100.00;100568.00;5074078;28;20271;-73
2023/07/28 02:34:49;;;;;;;;;;;;;;;16.65;100.00;100559.31;5055919;28;19953;-72
2023/07/28 02:37:15;;;;;;;;;;;;;;;16.64;100.00;100556.81;5074018;28;19932;-72
2023/07/28 02:39:40;;;;;;;;;;;;;;;16.63;100.00;100564.03;5055927;28;19927;-72
2023/07/28 02:42:06;;;;;;;;;;;;;;;16.60;100.00;100564.41;5074528;28;19927;-72
2023/07/28 02:44:31;;;;;;;;;;;;;;;16.63;100.00;100565.88;5073881;28;19955;-72
2023/07/28 02:46:56;;;;;;;;;;;;;;;16.59;100.00;100568.09;5073982;28;19955;-72
2023/07/28 02:49:22;;;;;;;;;;;;;;;16.60;100.00;100577.00;5073604;28;19967;-72
2023/07/28 02:51:47;;;;;;;;;;;;;;;16.59;100.00;100573.47;5073940;28;19920;-72
2023/07/28 02:54:12;;;;;;;;;;;;;;;16.58;100.00;100569.13;5073802;28;19924;-72
2023/07/28 02:56:38;;;;;;;;;;;;;;;16.58;100.00;100574.50;5073823;28;19978;-72
2023/07/28 02:59:03;;;;;;;;;;;;;;;16.59;100.00;100578.03;5073769;28;20011;-72
2023/07/28 03:01:30;;;;;;;;;;;;;;;16.58;100.00;100577.19;5073911;28;19987;-72
2023/07/28 03:03:55;;;;;;;;;;;;;;;16.58;100.00;100577.19;5056499;28;20261;-72
2023/07/28 03:06:20;;;;;;;;;;;;;;;16.57;100.00;100586.28;5073271;28;19920;-72
2023/07/28 03:08:45;;;;;;;;;;;;;;;16.57;100.00;100586.28;5073533;28;19927;-72
2023/07/28 03:11:11;;;;;;;;;;;;;;;16.56;100.00;100590.78;5073642;28;19920;-72
2023/07/28 03:13:36;;;;;;;;;;;;;;;16.56;100.00;100595.34;5073481;28;19921;-72
2023/07/28 03:16:01;;;;;;;;;;;;;;;16.56;100.00;100598.84;5073350;28;19943;-72
2023/07/28 03:18:26;;;;;;;;;;;;;;;16.57;100.00;100588.97;5073298;28;19927;-72
2023/07/28 03:20:52;;;;;;;;;;;;;;;16.56;100.00;100593.47;5073214;28;20004;-72
2023/07/28 03:23:17;;;;;;;;;;;;;;;16.57;100.00;100599.69;5073336;28;20019;-72
2023/07/28 03:25:42;;;;;;;;;;;;;;;16.56;100.00;100595.34;5073453;28;20371;-72
2023/07/28 03:28:07;;;;;;;;;;;;;;;16.56;100.00;100601.53;5074063;28;19921;-72
2023/07/28 03:30:33;;;;;;;;;;;;;;;16.57;100.00;100600.53;5073714;28;19921;-72
2023/07/28 03:32:58;;;;;;;;;;;;;;;16.59;100.00;100602.19;5073400;28;19944;-72
2023/07/28 03:35:23;;;;;;;;;;;;;;;16.59;100.00;100599.50;5055957;28;19963;-72
2023/07/28 03:37:48;;;;;;;;;;;;;;;16.59;100.00;100597.66;5073413;28;20249;-71
2023/07/28 03:40:13;;;;;;;;;;;;;;;16.58;100.00;100609.41;5056178;28;19920;-72
2023/07/28 03:42:39;;;;;;;;;;;;;;;16.57;100.00;100608.59;5073309;28;20257;-72
2023/07/28 03:45:04;;;;;;;;;;;;;;;16.59;100.00;100615.63;5055730;28;19970;-72
2023/07/28 03:47:29;;;;;;;;;;;;;;;16.59;100.00;100612.94;5055268;28;20360;-72
2023/07/28 03:49:55;;;;;;;;;;;;;;;16.58;100.00;100614.78;5072954;28;19923;-71
2023/07/28 03:52:20;;;;;;;;;;;;;;;16.59;100.00;100618.31;5073188;28;19921;-72
2023/07/28 03:54:45;;;;;;;;;;;;;;;16.60;100.00;100622.66;5073157;28;19920;-72
2023/07/28 03:57:11;;;;;;;;;;;;;;;16.61;100.00;100618.94;5054868;28;20426;-72
2023/07/28 03:59:36;;;;;;;;;;;;;;;16.61;100.00;100627.00;5073162;28;19920;-72
2023/07/28 04:02:01;;;;;;;;;;;;;;;16.61;100.00;100627.84;5055474;28;19928;-72
2023/07/28 04:04:26;;;;;;;;;;;;;;;16.63;100.00;100624.97;5073549;28;19920;-72
2023/07/28 04:06:53;;;;;;;;;;;;;;;16.64;100.00;100624.78;5073116;28;19943;-72
2023/07/28 04:09:19;;;;;;;;;;;;;;;16.63;100.00;100617.75;5073322;28;20403;-72
2023/07/28 04:11:44;;;;;;;;;;;;;;;16.64;100.00;100622.09;5073021;28;19935;-72
2023/07/28 04:14:09;;;;;;;;;;;;;;;16.64;100.00;100616.72;5072933;28;19916;-72
2023/07/28 04:16:34;;;;;;;;;;;;;;;16.64;100.00;100619.41;5073008;28;19920;-71
2023/07/28 04:19:00;;;;;;;;;;;;;;;16.64;100.00;100616.72;5075193;28;19994;-71
2023/07/28 04:21:25;;;;;;;;;;;;;;;16.65;100.00;100618.41;5076809;28;19922;-71
2023/07/28 04:23:50;;;;;;;;;;;;;;;16.67;100.00;100624.41;5076986;28;20011;-71
2023/07/28 04:26:16;;;;;;;;;;;;;;;16.68;100.00;100622.56;5059516;28;20344;-71
2023/07/28 04:28:42;;;;;;;;;;;;;;;16.70;100.00;100623.22;5076463;28;19927;-71
2023/07/28 04:31:07;;;;;;;;;;;;;;;16.69;100.00;100619.69;5076807;28;20015;-70
2023/07/28 04:33:32;;;;;;;;;;;;;;;16.70;100.00;100621.34;5076384;28;19916;-72
2023/07/28 04:35:58;;;;;;;;;;;;;;;16.71;100.00;100632.94;5076463;28;19969;-71
2023/07/28 04:38:23;;;;;;;;;;;;;;;16.72;100.00;100627.38;5076602;28;19921;-71
2023/07/28 04:40:48;;;;;;;;;;;;;;;16.74;100.00;100621.84;5076075;28;20384;-71
2023/07/28 04:43:13;;;;;;;;;;;;;;;16.77;100.00;100631.38;5076243;28;20387;-71
2023/07/28 04:45:39;;;;;;;;;;;;;;;16.77;100.00;100628.69;5076171;28;20361;-72
2023/07/28 04:48:04;;;;;;;;;;;;;;;16.77;100.00;100626.84;5076029;28;19948;-71
2023/07/28 04:50:29;;;;;;;;;;;;;;;16.79;100.00;100623.97;5058512;28;19920;-71
2023/07/28 04:52:55;;;;;;;;;;;;;;;16.79;100.00;100629.34;5076390;28;19990;-71
2023/07/28 04:55:20;;;;;;;;;;;;;;;16.80;100.00;100631.84;5076389;28;20013;-71
2023/07/28 04:57:45;;;;;;;;;;;;;;;16.82;100.00;100628.97;5076320;28;19926;-71
2023/07/28 05:00:11;;;;;;;;;;;;;;;16.85;100.00;100633.97;5076555;28;19921;-71
2023/07/28 05:02:36;;;;;;;;;;;;;;;16.86;100.00;100633.78;5076142;28;20311;-71
2023/07/28 05:05:01;;;;;;;;;;;;;;;16.88;100.00;100637.16;5075908;28;19923;-71
2023/07/28 05:07:26;;;;;;;;;;;;;;;16.91;100.00;100627.88;5075931;28;19928;-71
2023/07/28 05:09:52;;;;;;;;;;;;;;;16.91;100.00;100627.88;5076466;28;19917;-70
2023/07/28 05:12:17;;;;;;;;;;;;;;;16.93;100.00;100633.91;5075471;28;19920;-70
2023/07/28 05:14:42;;;;;;;;;;;;;;;16.94;100.00;100632.06;5076183;28;19917;-70
2023/07/28 05:17:07;;;;;;;;;;;;;;;16.97;100.00;100635.19;5075713;28;19916;-72
2023/07/28 05:19:33;;;;;;;;;;;;;;;16.98;100.00;100634.19;5075645;28;19917;-71
2023/07/28 05:21:58;;;;;;;;;;;;;;;17.02;100.00;100640.84;5075272;28;20000;-71
2023/07/28 05:24:23;;;;;;;;;;;;;;;17.02;100.00;100637.34;5075560;28;19921;-71
2023/07/28 05:26:48;;;;;;;;;;;;;;;17.06;100.00;100642.16;5075472;28;19996;-71
2023/07/28 05:29:14;;;;;;;;;;;;;;;17.05;100.00;100642.34;5075073;28;20011;-71
2023/07/28 05:31:39;;;;;;;;;;;;;;;17.08;100.00;100653.53;5075575;28;19967;-72
2023/07/28 05:34:04;;;;;;;;;;;;;;;17.06;100.00;100647.53;5075752;28;20353;-71
2023/07/28 05:36:29;;;;;;;;;;;;;;;17.09;100.00;100640.94;5057254;28;19955;-71
2023/07/28 05:38:56;;;;;;;;;;;;;;;17.12;100.00;100648.63;5075163;28;19928;-71
2023/07/28 05:41:21;;;;;;;;;;;;;;;17.16;100.00;100654.47;5075190;28;19925;-71
2023/07/28 05:43:47;;;;;;;;;;;;;;;17.19;100.00;100656.78;5075171;28;20009;-71
2023/07/28 05:46:12;;;;;;;;;;;;;;;17.19;100.00;100665.66;5075109;28;19920;-71
2023/07/28 05:48:37;;;;;;;;;;;;;;;17.17;100.00;100661.53;5075509;28;20375;-71
2023/07/28 05:51:03;;;;;;;;;;;;;;;17.20;100.00;100670.03;5075637;28;19971;-71
2023/07/28 05:53:28;;;;;;;;;;;;;;;17.21;100.00;100666.34;5075475;28;19942;-71
2023/07/28 05:55:53;;;;;;;;;;;;;;;17.22;100.00;100661.78;5074631;28;19939;-71
2023/07/28 05:58:19;;;;;;;;;;;;;;;17.22;100.00;100665.28;5075280;28;19985;-71
2023/07/28 06:00:44;;;;;;;;;;;;;;;17.21;100.00;100678.94;5074904;28;19962;-71
2023/07/28 06:03:10;;;;;;;;;;;;;;;17.22;100.00;100676.06;5057027;28;19974;-70
2023/07/28 06:05:35;;;;;;;;;;;;;;;17.25;100.00;100674.84;5075253;28;20264;-70
2023/07/28 06:08:00;;;;;;;;;;;;;;;17.26;100.00;100676.53;5074619;28;19916;-71
2023/07/28 06:10:25;;;;;;;;;;;;;;;17.27;100.00;100676.34;5074649;28;20397;-74
2023/07/28 06:12:51;;;;;;;;;;;;;;;17.28;100.00;100677.16;5074163;28;19990;-71
2023/07/28 06:15:16;;;;;;;;;;;;;;;17.30;100.00;100675.09;5074267;28;19920;-71
2023/07/28 06:17:42;;;;;;;;;;;;;;;17.31;100.00;100681.34;5074441;28;20022;-72
2023/07/28 06:20:07;;;;;;;;;;;;;;;17.34;100.00;100680.97;5074762;28;19967;-71
2023/07/28 06:22:33;;;;;;;;;;;;;;;17.36;100.00;100678.91;5073798;28;19951;-70
2023/07/28 06:24:58;;;;;;;;;;;;;;;17.42;100.00;100687.06;5073743;28;20264;-71
2023/07/28 06:27:23;;;;;;;;;;;;;;;17.49;100.00;100684.44;5074087;28;19929;-71
2023/07/28 06:29:48;;;;;;;;;;;;;;;17.54;100.00;100684.75;5056051;28;19920;-71
2023/07/28 06:32:14;;;;;;;;;;;;;;;17.59;100.00;100693.06;5074536;28;19920;-71
2023/07/28 06:34:39;;;;;;;;;;;;;;;17.63;100.00;100698.91;5073832;28;19925;-71
2023/07/28 06:37:04;;;;;;;;;;;;;;;17.69;100.00;100700.00;5074015;28;20074;-71
2023/07/28 06:39:30;;;;;;;;;;;;;;;17.73;100.00;100706.66;5074058;28;19956;-71
2023/07/28 06:41:55;;;;;;;;;;;;;;;17.79;100.00;100703.22;5073798;28;19977;-72
2023/07/28 06:44:20;;;;;;;;;;;;;;;17.86;100.00;100708.69;5074008;28;19920;-70
2023/07/28 06:46:46;;;;;;;;;;;;;;;17.89;100.00;100711.84;5055795;28;19924;-74
2023/07/28 06:49:12;;;;;;;;;;;;;;;17.91;100.00;100709.78;5073927;28;19920;-72
2023/07/28 06:51:37;;;;;;;;;;;;;;;17.95;100.00;100713.78;5073700;28;19944;-71
2023/07/28 06:54:02;;;;;;;;;;;;;;;17.98;100.00;100712.56;5073344;28;19973;-71
2023/07/28 06:56:27;;;;;;;;;;;;;;;18.01;100.00;100714.06;5055128;28;19966;-71
2023/07/28 06:58:53;;;;;;;;;;;;;;;18.02;100.00;100713.00;5073415;28;19920;-71
2023/07/28 07:01:18;;;;;;;;;;;;;;;18.07;100.00;100716.81;5073514;28;20014;-71
2023/07/28 07:03:43;;;;;;;;;;;;;;;18.08;100.00;100721.16;5073513;28;19916;-72
2023/07/28 07:06:08;;;;;;;;;;;;;;;18.13;100.00;100715.22;5073424;28;20287;-72
2023/07/28 07:08:34;;;;;;;;;;;;;;;18.18;100.00;100717.31;5073912;28;20000;-71
2023/07/28 07:10:59;;;;;;;;;;;;;;;18.21;100.00;100719.63;5073380;28;19962;-71
2023/07/28 07:13:24;;;;;;;;;;;;;;;18.28;100.00;100721.34;5054928;28;20018;-72
2023/07/28 07:15:49;;;;;;;;;;;;;;;18.35;100.00;100717.88;5055129;28;20259;-72
2023/07/28 07:18:15;;;;;;;;;;;;;;;18.41;100.00;100733.31;5073172;28;19920;-72
2023/07/28 07:20:40;;;;;;;;;;;;;;;18.52;100.00;100731.94;5072994;28;19962;-71
2023/07/28 07:23:06;;;;;;;;;;;;;;;18.64;100.00;100731.19;5072875;28;19928;-72
2023/07/28 07:25:31;;;;;;;;;;;;;;;18.74;100.00;100730.88;5073217;28;19912;-72
2023/07/28 07:27:56;;;;;;;;;;;;;;;18.92;100.00;100737.69;5055887;28;20443;-72
2023/07/28 07:30:22;;;;;;;;;;;;;;;19.06;100.00;100731.31;5073189;28;20325;-74
2023/07/28 07:32:47;;;;;;;;;;;;;;;19.20;100.00;100732.25;5072744;28;19916;-74
2023/07/28 07:35:12;;;;;;;;;;;;;;;19.29;100.00;100724.84;5072786;28;20390;-74
2023/07/28 07:37:38;;;;;;;;;;;;;;;19.34;100.00;100723.19;5073088;28;20397;-73
2023/07/28 07:40:04;;;;;;;;;;;;;;;19.50;100.00;100722.03;5073025;28;19958;-73
2023/07/28 07:42:41;;;;;;;;;;;;;;;19.65;100.00;100724.56;5073030;28;19924;-73
2023/07/28 07:45:07;;;;;;;;;;;;;;;19.84;100.00;100731.13;5073728;28;20263;-73
2023/07/28 07:47:32;;;;;;;;;;;;;;;19.95;100.00;100735.09;5072994;28;20014;-74
2023/07/28 07:49:57;;;;;;;;;;;;;;;20.03;100.00;100737.63;5072706;28;19951;-73
2023/07/28 07:52:23;;;;;;;;;;;;;;;20.08;100.00;100743.22;5072842;28;20249;-73
2023/07/28 07:54:48;;;;;;;;;;;;;;;20.19;100.00;100736.38;5059255;28;19952;-73
2023/07/28 07:57:13;;;;;;;;;;;;;;;20.35;100.00;100737.88;5076663;28;19916;-74
2023/07/28 07:59:39;;;;;;;;;;;;;;;20.49;100.00;100741.41;5077435;28;19917;-73
2023/07/28 08:02:04;;;;;;;;;;;;;;;20.59;100.00;100752.63;5059404;28;20062;-73
2023/07/28 08:04:30;;;;;;;;;;;;;;;20.57;100.00;100745.75;5059209;28;20312;-73
2023/07/28 08:06:55;;;;;;;;;;;;;;;20.59;100.00;100749.94;5076725;28;19923;-72
2023/07/28 08:09:20;;;;;;;;;;;;;;;20.58;100.00;100755.56;5076901;28;20006;-73
2023/07/28 08:11:45;;;;;;;;;;;;;;;20.63;100.00;100755.78;5076914;28;20011;-72
2023/07/28 08:14:11;;;;;;;;;;;;;;;20.59;100.00;100751.81;5077321;28;19924;-72
2023/07/28 08:16:36;;;;;;;;;;;;;;;20.59;100.00;100752.63;5077166;28;19917;-72
2023/07/28 08:19:01;;;;;;;;;;;;;;;20.65;100.00;100748.28;5076474;28;19923;-72
2023/07/28 08:21:26;;;;;;;;;;;;;;;20.80;100.00;100748.09;5076648;28;20007;-72
2023/07/28 08:23:52;;;;;;;;;;;;;;;21.06;100.00;100755.34;5077056;28;19916;-71
2023/07/28 08:26:17;;;;;;;;;;;;;;;21.39;100.00;100753.59;5058638;28;19917;-71
2023/07/28 08:28:42;;;;;;;;;;;;;;;21.64;100.00;100756.47;5076589;28;19916;-71
2023/07/28 08:31:08;;;;;;;;;;;;;;;21.77;100.00;100747.47;5077173;28;19919;-72
2023/07/28 08:33:33;;;;;;;;;;;;;;;21.78;100.00;100744.53;5076555;28;19912;-71
2023/07/28 08:35:58;;;;;;;;;;;;;;;21.72;100.00;100752.69;5076585;28;19977;-71
2023/07/28 08:38:23;;;;;;;;;;;;;;;21.75;100.00;100753.09;5076425;28;19923;-71
2023/07/28 08:40:49;;;;;;;;;;;;;;;21.88;100.00;100762.19;5076367;28;20020;-70
2023/07/28 08:43:14;;;;;;;;;;;;;;;21.96;100.00;100754.66;5076645;28;19916;-71
2023/07/28 08:45:39;;;;;;;;;;;;;;;21.85;100.00;100755.31;5076826;28;19923;-70
2023/07/28 08:48:05;;;;;;;;;;;;;;;21.73;100.00;100766.00;5076321;28;19940;-71
2023/07/28 08:50:30;;;;;;;;;;;;;;;21.68;100.00;100768.53;5076576;28;19940;-71
2023/07/28 08:52:59;;;;;;;;;;;;;;;21.45;100.00;100768.97;5075999;28;20276;-71
2023/07/28 08:55:25;;;;;;;;;;;;;;;21.22;100.00;100780.28;5076301;28;19912;-71
2023/07/28 08:57:50;;;;;;;;;;;;;;;21.24;100.00;100770.09;5076304;28;19920;-70
2023/07/28 09:00:17;;;;;;;;;;;;;;;21.30;100.00;100783.63;5076155;28;20318;-71
2023/07/28 09:02:43;;;;;;;;;;;;;;;21.44;100.00;100781.69;5076052;28;19912;-70
2023/07/28 09:05:16;;;;;;;;;;;;;;;21.40;100.00;100779.63;5057376;28;19920;-71
2023/07/28 09:07:42;;;;;;;;;;;;;;;21.16;100.00;100778.44;5057836;28;19916;-70
2023/07/28 09:10:07;;;;;;;;;;;;;;;20.89;100.00;100781.16;5075893;28;19919;-72
2023/07/28 09:12:33;;;;;;;;;;;;;;;20.80;100.00;100779.72;5075850;28;19960;-71
2023/07/28 09:14:58;;;;;;;;;;;;;;;20.70;100.00;100785.53;5075872;28;20301;-70
2023/07/28 09:17:23;;;;;;;;;;;;;;;20.53;100.00;100785.09;5075955;28;19912;-71
2023/07/28 09:19:56;;;;;;;;;;;;;;;20.34;100.00;100781.31;5057735;28;19917;-71
2023/07/28 09:22:22;;;;;;;;;;;;;;;20.23;100.00;100790.84;5075718;28;19912;-71
2023/07/28 09:24:47;;;;;;;;;;;;;;;20.19;100.00;100785.00;5075480;28;19917;-71
2023/07/28 09:27:21;;;;;;;;;;;;;;;20.16;100.00;100787.28;5075696;28;19923;-71
2023/07/28 09:29:50;;;;;;;;;;;;;;;20.14;100.00;100784.78;5057537;28;20408;-71
2023/07/28 09:32:16;;;;;;;;;;;;;;;20.09;100.00;100792.66;5075405;28;20368;-71
2023/07/28 09:34:41;;;;;;;;;;;;;;;20.10;100.00;100797.03;5075379;28;20001;-71
2023/07/28 09:37:08;;;;;;;;;;;;;;;20.14;100.00;100800.16;5075460;28;19936;-71
2023/07/28 09:39:36;;;;;;;;;;;;;;;20.19;100.00;100797.69;5074989;28;19920;-71
2023/07/28 09:42:01;;;;;;;;;;;;;;;20.25;100.00;100807.66;5075079;28;19966;-71
2023/07/28 09:44:27;;;;;;;;;;;;;;;20.29;100.00;100800.84;5075234;28;19912;-71
2023/07/28 09:46:55;;;;;;;;;;;;;;;20.37;100.00;100808.72;5075221;28;19917;-71
2023/07/28 09:49:41;;;;;;;;;;;;;;;20.31;100.00;100804.16;5057211;28;19963;-70
2023/07/28 09:52:10;;;;;;;;;;;;;;;20.24;100.00;100809.56;5074082;28;19916;-70
2023/07/28 09:54:39;;;;;;;;;;;;;;;20.17;100.00;100810.53;5075583;28;20024;-71
2023/07/28 09:57:07;;;;;;;;;;;;;;;19.96;100.00;100809.66;5075227;28;19970;-70
2023/07/28 09:59:35;;;;;;;;;;;;;;;19.83;100.00;100812.31;5074950;28;20269;-69
2023/07/28 10:02:01;;;;;;;;;;;;;;;19.83;100.00;100813.13;5074874;28;20317;-71
2023/07/28 10:04:26;;;;;;;;;;;;;;;20.11;100.00;100817.63;5074978;28;20003;-70
2023/07/28 10:06:56;;;;;;;;;;;;;;;20.62;100.00;100810.88;5056872;28;19916;-68
2023/07/28 10:09:23;;;;;;;;;;;;;;;21.06;100.00;100806.72;5074635;28;20011;-72
2023/07/28 10:11:48;;;;;;;;;;;;;;;21.38;100.00;100812.31;5074623;28;19935;-71
2023/07/28 10:14:24;;;;;;;;;;;;;;;21.85;100.00;100806.78;5074878;28;19917;-75
2023/07/28 10:16:50;;;;;;;;;;;;;;;22.78;100.00;100815.44;5056311;28;19913;-75
2023/07/28 10:19:19;;;;;;;;;;;;;;;23.25;100.00;100813.19;5074953;28;19928;-75
2023/07/28 10:21:45;;;;;;;;;;;;;;;23.85;100.00;100809.81;5074911;28;19950;-74
2023/07/28 10:24:11;;;;;;;;;;;;;;;24.19;100.00;100814.84;5074758;28;19920;-76
2023/07/28 10:26:37;;;;;;;;;;;;;;;24.36;100.00;100815.00;5074641;28;20268;-76
2023/07/28 10:29:15;;;;;;;;;;;;;;;24.40;100.00;100827.09;5074697;28;19934;-76
2023/07/28 10:31:56;;;;;;;;;;;;;;;23.86;100.00;100821.53;5074301;28;20010;-73
2023/07/28 10:34:22;;;;;;;;;;;;;;;23.18;100.00;100813.22;5074122;28;19981;-72
2023/07/28 10:36:55;;;;;;;;;;;;;;;22.76;100.00;100820.25;5073967;28;20011;-75
2023/07/28 10:39:21;;;;;;;;;;;;;;;22.47;100.00;100826.09;5074759;28;19919;-73
2023/07/28 10:42:00;;;;;;;;;;;;;;;22.25;100.00;100822.03;5074073;28;19912;-78
2023/07/28 10:44:26;;;;;;;;;;;;;;;21.85;100.00;100820.31;5057068;28;20385;-78
2023/07/28 10:46:52;;;;;;;;;;;;;;;21.67;100.00;100821.84;5073865;28;20007;-75
2023/07/28 10:49:17;;;;;;;;;;;;;;;21.77;100.00;100824.09;5074087;28;20280;-73
2023/07/28 10:51:42;;;;;;;;;;;;;;;21.70;100.00;100819.75;5074159;28;19966;-74
2023/07/28 10:54:07;;;;;;;;;;;;;;;21.66;100.00;100832.88;5056103;28;19919;-74
2023/07/28 10:56:33;;;;;;;;;;;;;;;21.81;100.00;100822.63;5074022;28;19927;-73
2023/07/28 10:59:01;;;;;;;;;;;;;;;21.93;100.00;100824.66;5072793;28;21514;-73
2023/07/28 11:01:36;;;;;;;;;;;;;;;21.77;100.00;100821.41;5073881;28;19999;-73
2023/07/28 11:04:15;;;;;;;;;;;;;;;21.80;100.00;100830.97;5074575;28;19944;-73
2023/07/28 11:06:42;;;;;;;;;;;;;;;21.88;100.00;100832.63;5073878;28;19924;-72
2023/07/28 11:09:09;;;;;;;;;;;;;;;21.84;100.00;100835.75;5055854;28;19986;-73
2023/07/28 11:11:36;;;;;;;;;;;;;;;21.65;100.00;100844.78;5073778;28;19919;-73
2023/07/28 11:14:01;;;;;;;;;;;;;;;21.55;100.00;100842.50;5073544;28;19919;-72
2023/07/28 11:16:27;;;;;;;;;;;;;;;21.21;100.00;100846.25;5073302;28;19917;-72
2023/07/28 11:18:55;;;;;;;;;;;;;;;20.91;100.00;100852.09;5073444;28;20010;-73
2023/07/28 11:21:22;;;;;;;;;;;;;;;20.81;100.00;100851.66;5073170;28;19913;-73
2023/07/28 11:23:48;;;;;;;;;;;;;;;20.84;100.00;100843.97;5073333;28;19966;-71
2023/07/28 11:26:13;;;;;;;;;;;;;;;21.06;100.00;100846.47;5073133;28;19920;-70
2023/07/28 11:28:39;;;;;;;;;;;;;;;21.32;100.00;100845.63;5072432;28;19920;-70
2023/07/28 11:31:04;;;;;;;;;;;;;;;21.74;100.00;100848.09;5073092;28;19912;-71
2023/07/28 11:33:31;;;;;;;;;;;;;;;22.25;100.00;100843.69;5072803;28;19923;-70
2023/07/28 11:35:56;;;;;;;;;;;;;;;22.25;100.00;100844.53;5072904;28;20019;-70
2023/07/28 11:38:21;;;;;;;;;;;;;;;22.17;100.00;100848.31;5072865;28;19955;-69
2023/07/28 11:40:46;;;;;;;;;;;;;;;21.95;100.00;100852.38;5073182;28;20360;-71
2023/07/28 11:43:12;;;;;;;;;;;;;;;21.57;100.00;100856.66;5073124;28;20023;-70
2023/07/28 11:45:37;;;;;;;;;;;;;;;21.45;100.00;100858.28;5072826;28;19917;-71
2023/07/28 11:48:02;;;;;;;;;;;;;;;21.18;100.00;100855.63;5073131;28;20364;-73
2023/07/28 11:50:29;;;;;;;;;;;;;;;21.14;100.00;100860.63;5072804;28;19936;-72
2023/07/28 11:52:56;;;;;;;;;;;;;;;21.23;100.00;100858.53;5072981;28;19959;-73
2023/07/28 11:55:22;;;;;;;;;;;;;;;21.52;100.00;100856.44;5073165;28;19912;-73
2023/07/28 11:57:48;;;;;;;;;;;;;;;21.85;100.00;100866.34;5054450;28;19916;-72
2023/07/28 12:00:16;;;;;;;;;;;;;;;22.30;100.00;100858.28;5072758;28;19928;-72
2023/07/28 12:02:42;;;;;;;;;;;;;;;22.47;100.00;100860.50;5072831;28;19916;-72
2023/07/28 12:05:14;;;;;;;;;;;;;;;22.17;100.00;100861.88;5072954;28;19919;-72
2023/07/28 12:07:40;;;;;;;;;;;;;;;21.93;100.00;100858.00;5072965;28;20011;-72
2023/07/28 12:10:09;;;;;;;;;;;;;;;21.85;100.00;100869.06;5073054;28;19959;-72
2023/07/28 12:12:47;;;;;;;;;;;;;;;21.63;100.00;100863.06;5054774;28;20280;-73
2023/07/28 12:15:19;;;;;;;;;;;;;;;21.39;100.00;100868.13;5072668;28;20015;-74
2023/07/28 12:18:03;;;;;;;;;;;;;;;21.38;100.00;100866.44;5072406;28;19916;-72
2023/07/28 12:20:32;;;;;;;;;;;;;;;21.61;100.00;100874.13;5072774;28;20000;-72
2023/07/28 12:22:57;;;;;;;;;;;;;;;21.74;100.00;100873.28;5072991;28;20007;-72